createdAt,value
2022-08-25T00:02:00.788Z,10.13
2022-08-25T00:04:30.639Z,10.80
2022-08-25T00:07:02.739Z,10.17
2022-08-25T00:09:31.727Z,10.43
2022-08-25T00:11:59.262Z,10.77
2022-08-25T00:14:30.999Z,9.87
2022-08-25T00:16:57.936Z,11.30
2022-08-25T00:19:28.874Z,11.13
2022-08-25T00:21:56.548Z,10.83
2022-08-25T00:24:24.492Z,11.63
2022-08-25T00:26:54.499Z,14.27
2022-08-25T00:29:22.805Z,12.40
2022-08-25T00:31:49.654Z,10.80
2022-08-25T00:34:24.739Z,11.77
2022-08-25T00:36:51.919Z,11.57
2022-08-25T00:39:21.124Z,11.77
2022-08-25T00:41:49.980Z,11.67
2022-08-25T00:44:20.144Z,12.03
2022-08-25T00:46:52.758Z,10.63
2022-08-25T00:49:30.278Z,11.63
2022-08-25T00:52:04.908Z,13.40
2022-08-25T00:54:47.623Z,11.80
2022-08-25T00:57:16.886Z,14.53
2022-08-25T00:59:44.505Z,11.57
2022-08-25T01:02:13.801Z,12.07
2022-08-25T01:04:48.714Z,11.57
2022-08-25T01:07:18.670Z,11.70
2022-08-25T01:09:47.721Z,12.27
2022-08-25T01:12:15.137Z,11.93
2022-08-25T01:14:46.008Z,13.80
2022-08-25T01:17:13.388Z,11.83
2022-08-25T01:19:40.349Z,11.57
2022-08-25T01:22:07.382Z,13.53
2022-08-25T01:25:01.773Z,12.20
2022-08-25T01:27:31.378Z,16.73
2022-08-25T01:29:58.248Z,11.63
2022-08-25T01:32:25.188Z,14.63
2022-08-25T01:34:52.034Z,12.37
2022-08-25T01:37:19.300Z,12.93
2022-08-25T01:39:46.684Z,13.47
2022-08-25T01:42:37.515Z,13.47
2022-08-25T01:45:05.447Z,13.73
2022-08-25T01:47:32.834Z,12.83
2022-08-25T01:49:59.756Z,13.33
2022-08-25T01:52:33.384Z,14.83
2022-08-25T01:55:00.321Z,13.87
2022-08-25T01:57:31.605Z,13.00
2022-08-25T01:59:59.071Z,15.03
2022-08-25T02:02:26.246Z,13.60
2022-08-25T02:04:53.350Z,13.33
2022-08-25T02:07:20.826Z,13.83
2022-08-25T02:09:47.707Z,12.40
2022-08-25T02:12:15.458Z,12.53
2022-08-25T02:14:42.368Z,13.73
2022-08-25T02:17:09.782Z,12.43
2022-08-25T02:19:36.734Z,16.20
2022-08-25T02:22:04.302Z,12.77
2022-08-25T02:24:31.328Z,15.10
2022-08-25T02:26:58.240Z,15.43
2022-08-25T02:29:25.366Z,13.93
2022-08-25T02:31:52.220Z,14.10
2022-08-25T02:34:19.257Z,13.23
2022-08-25T02:36:46.122Z,14.97
2022-08-25T02:39:13.051Z,14.43
2022-08-25T02:41:40.367Z,13.90
2022-08-25T02:44:08.503Z,14.23
2022-08-25T02:46:36.085Z,16.30
2022-08-25T02:49:03.556Z,13.23
2022-08-25T02:51:30.574Z,17.20
2022-08-25T02:53:59.160Z,13.77
2022-08-25T02:56:26.428Z,15.53
2022-08-25T02:58:53.833Z,14.17
2022-08-25T03:01:21.345Z,14.20
2022-08-25T03:03:51.343Z,19.67
2022-08-25T03:06:22.968Z,14.53
2022-08-25T03:08:50.272Z,14.13
2022-08-25T03:11:18.001Z,15.53
2022-08-25T03:13:44.903Z,13.93
2022-08-25T03:16:12.436Z,15.73
2022-08-25T03:18:42.005Z,15.90
2022-08-25T03:21:11.505Z,16.30
2022-08-25T03:23:38.873Z,16.47
2022-08-25T03:26:24.606Z,14.57
2022-08-25T03:28:51.690Z,14.90
2022-08-25T03:31:19.161Z,17.73
2022-08-25T03:33:46.242Z,14.47
2022-08-25T03:36:13.326Z,14.97
2022-08-25T03:38:40.611Z,16.37
2022-08-25T03:41:16.086Z,16.60
2022-08-25T03:43:44.034Z,16.40
2022-08-25T03:46:17.841Z,14.80
2022-08-25T03:48:44.939Z,16.27
2022-08-25T03:51:11.761Z,16.47
2022-08-25T03:53:38.868Z,18.30
2022-08-25T03:56:05.918Z,14.97
2022-08-25T03:58:32.735Z,15.60
2022-08-25T04:01:00.551Z,19.77
2022-08-25T04:03:27.490Z,17.23
2022-08-25T04:05:54.345Z,17.10
2022-08-25T04:08:23.242Z,15.90
2022-08-25T04:10:50.226Z,14.87
2022-08-25T04:13:18.016Z,16.73
2022-08-25T04:15:44.914Z,17.07
2022-08-25T04:18:13.398Z,17.07
2022-08-25T04:20:46.672Z,21.03
2022-08-25T04:23:13.772Z,19.10
2022-08-25T04:25:44.212Z,17.17
2022-08-25T04:28:13.248Z,19.47
2022-08-25T04:30:43.700Z,17.47
2022-08-25T04:33:10.553Z,20.73
2022-08-25T04:35:37.367Z,17.30
2022-08-25T04:38:05.493Z,20.43
2022-08-25T04:40:32.654Z,16.80
2022-08-25T04:42:59.674Z,18.17
2022-08-25T04:45:26.489Z,18.40
2022-08-25T04:47:55.111Z,16.90
2022-08-25T04:50:22.088Z,18.80
2022-08-25T04:52:49.575Z,18.40
2022-08-25T04:55:16.683Z,17.57
2022-08-25T04:57:43.722Z,15.87
2022-08-25T05:00:11.356Z,18.40
2022-08-25T05:02:38.435Z,18.43
2022-08-25T05:05:06.998Z,16.93
2022-08-25T05:07:33.925Z,19.00
2022-08-25T05:10:00.794Z,16.53
2022-08-25T05:12:29.076Z,18.23
2022-08-25T05:14:55.946Z,16.40
2022-08-25T05:17:22.883Z,17.60
2022-08-25T05:19:50.048Z,15.63
2022-08-25T05:22:16.897Z,18.07
2022-08-25T05:24:43.733Z,14.80
2022-08-25T05:27:10.666Z,15.17
2022-08-25T05:29:37.520Z,15.17
2022-08-25T05:32:04.495Z,16.47
2022-08-25T05:34:31.343Z,15.40
2022-08-25T05:37:00.242Z,15.33
2022-08-25T05:39:27.227Z,15.47
2022-08-25T05:41:54.271Z,16.67
2022-08-25T05:44:21.593Z,15.80
2022-08-25T05:46:48.743Z,16.40
2022-08-25T05:49:15.614Z,14.83
2022-08-25T05:51:42.462Z,14.07
2022-08-25T05:54:09.282Z,16.77
2022-08-25T05:56:37.018Z,14.20
2022-08-25T05:59:08.701Z,14.30
2022-08-25T06:01:57.254Z,14.33
2022-08-25T06:04:24.331Z,15.70
2022-08-25T06:06:54.989Z,13.93
2022-08-25T06:09:22.568Z,14.67
2022-08-25T06:11:54.072Z,13.27
2022-08-25T06:14:21.823Z,12.87
2022-08-25T06:16:51.587Z,12.30
2022-08-25T06:19:18.958Z,11.73
2022-08-25T06:21:45.887Z,10.90
2022-08-25T06:24:15.613Z,11.53
2022-08-25T06:26:44.279Z,12.07
2022-08-25T06:29:11.476Z,14.67
2022-08-25T06:31:38.466Z,12.27
2022-08-25T06:34:06.295Z,11.83
2022-08-25T06:36:34.154Z,12.53
2022-08-25T06:39:01.581Z,13.40
2022-08-25T06:41:36.555Z,12.63
2022-08-25T06:44:05.652Z,14.00
2022-08-25T06:46:36.616Z,13.37
2022-08-25T06:49:05.615Z,16.08
2022-08-25T06:51:35.638Z,16.40
2022-08-25T06:54:03.616Z,17.05
2022-08-25T06:56:30.527Z,12.88
2022-08-25T06:58:57.732Z,13.00
2022-08-25T07:01:27.164Z,13.85
2022-08-25T07:03:59.787Z,12.38
2022-08-25T07:06:29.261Z,11.80
2022-08-25T07:08:56.117Z,12.70
2022-08-25T07:11:23.461Z,13.10
2022-08-25T07:13:51.234Z,11.98
2022-08-25T07:16:20.510Z,14.02
2022-08-25T07:18:48.235Z,11.65
2022-08-25T07:21:16.861Z,11.38
2022-08-25T07:23:44.215Z,11.73
2022-08-25T07:26:37.286Z,12.68
2022-08-25T07:29:12.521Z,11.55
2022-08-25T07:31:39.558Z,11.20
2022-08-25T07:34:26.314Z,11.77
2022-08-25T07:36:54.571Z,11.40
2022-08-25T07:39:22.975Z,11.20
2022-08-25T07:41:52.448Z,12.52
2022-08-25T07:44:21.607Z,11.48
2022-08-25T07:46:50.184Z,12.93
2022-08-25T07:49:18.392Z,11.68
2022-08-25T07:52:05.482Z,10.57
2022-08-25T07:54:38.051Z,10.40
2022-08-25T07:57:07.692Z,10.80
2022-08-25T07:59:39.237Z,10.73
2022-08-25T08:02:08.557Z,11.50
2022-08-25T08:04:37.161Z,12.07
2022-08-25T08:07:04.819Z,12.20
2022-08-25T08:09:39.027Z,9.85
2022-08-25T08:12:06.878Z,10.75
2022-08-25T08:14:34.530Z,11.75
2022-08-25T08:17:06.667Z,13.32
2022-08-25T08:19:34.936Z,10.73
2022-08-25T08:22:03.501Z,11.90
2022-08-25T08:24:44.630Z,11.30
2022-08-25T08:27:18.094Z,10.77
2022-08-25T08:29:45.947Z,11.23
2022-08-25T08:32:13.538Z,11.18
2022-08-25T08:34:41.709Z,11.35
2022-08-25T08:37:10.478Z,11.70
2022-08-25T08:39:37.869Z,16.00
2022-08-25T08:42:26.510Z,12.23
2022-08-25T08:45:21.264Z,13.20
2022-08-25T08:48:19.789Z,17.13
2022-08-25T08:51:04.927Z,16.58
2022-08-25T08:53:46.259Z,13.47
2022-08-25T08:56:38.830Z,16.00
2022-08-25T08:59:19.149Z,15.30
2022-08-25T09:01:59.356Z,15.93
2022-08-25T09:04:37.542Z,15.60
2022-08-25T09:07:42.432Z,14.33
2022-08-25T09:10:10.328Z,16.00
2022-08-25T09:12:47.958Z,15.97
2022-08-25T09:16:01.379Z,16.13
2022-08-25T09:18:50.738Z,15.77
2022-08-25T09:21:35.217Z,18.30
2022-08-25T09:24:43.385Z,16.85
2022-08-25T09:27:34.726Z,17.73
2022-08-25T09:30:10.393Z,19.83
2022-08-25T09:33:05.204Z,16.65
2022-08-25T09:35:35.730Z,14.73
2022-08-25T09:38:13.282Z,16.52
2022-08-25T09:40:46.505Z,16.42
2022-08-25T09:43:27.136Z,15.35
2022-08-25T09:46:01.579Z,19.80
2022-08-25T09:48:42.333Z,16.87
2022-08-25T09:51:20.929Z,16.13
2022-08-25T09:53:59.653Z,16.17
2022-08-25T09:56:33.258Z,16.33
2022-08-25T09:59:34.751Z,17.23
2022-08-25T10:02:26.789Z,20.65
2022-08-25T10:04:54.661Z,17.53
2022-08-25T10:07:36.734Z,15.33
2022-08-25T10:10:18.327Z,16.45
2022-08-25T10:12:51.477Z,19.98
2022-08-25T10:15:34.699Z,17.67
2022-08-25T10:18:26.748Z,18.67
2022-08-25T10:21:07.654Z,14.60
2022-08-25T10:23:38.732Z,20.58
2022-08-25T10:26:18.229Z,19.02
2022-08-25T10:28:56.978Z,18.65
2022-08-25T10:31:35.866Z,16.83
2022-08-25T10:34:29.095Z,14.48
2022-08-25T10:37:15.345Z,23.53
2022-08-25T10:39:56.277Z,21.73
2022-08-25T10:42:26.204Z,16.77
2022-08-25T10:45:35.872Z,21.07
2022-08-25T10:48:13.041Z,26.30
2022-08-25T10:51:20.536Z,23.10
2022-08-25T10:54:17.803Z,20.33
2022-08-25T10:56:53.300Z,21.67
2022-08-25T10:59:47.137Z,23.67
2022-08-25T11:02:49.606Z,20.37
2022-08-25T11:05:40.558Z,18.17
2022-08-25T11:08:23.102Z,21.10
2022-08-25T11:10:57.426Z,18.87
2022-08-25T11:13:35.942Z,27.23
2022-08-25T11:16:17.459Z,18.73
2022-08-25T11:18:58.228Z,20.33
2022-08-25T11:21:52.038Z,16.90
2022-08-25T11:24:18.873Z,24.73
2022-08-25T11:26:56.313Z,21.13
2022-08-25T11:29:28.387Z,22.27
2022-08-25T11:32:01.217Z,18.87
2022-08-25T11:34:32.953Z,20.60
2022-08-25T11:37:11.115Z,22.83
2022-08-25T11:40:14.386Z,19.67
2022-08-25T11:43:01.875Z,17.00
2022-08-25T11:45:55.764Z,24.83
2022-08-25T11:48:28.899Z,19.30
2022-08-25T11:51:09.387Z,22.13
2022-08-25T11:53:42.479Z,17.60
2022-08-25T11:56:34.882Z,24.20
2022-08-25T11:59:02.090Z,24.77
2022-08-25T12:02:00.931Z,22.37
2022-08-25T12:04:44.337Z,19.67
2022-08-25T12:07:24.447Z,22.53
2022-08-25T12:09:51.411Z,21.67
2022-08-25T12:12:29.567Z,18.87
2022-08-25T12:15:13.864Z,21.83
2022-08-25T12:17:41.153Z,18.33
2022-08-25T12:20:08.687Z,20.27
2022-08-25T12:22:35.552Z,17.67
2022-08-25T12:25:25.127Z,16.43
2022-08-25T12:28:09.277Z,23.67
2022-08-25T12:30:57.006Z,20.93
2022-08-25T12:33:46.174Z,17.73
2022-08-25T12:36:27.841Z,15.27
2022-08-25T12:38:54.869Z,20.97
2022-08-25T12:41:27.482Z,16.60
2022-08-25T12:44:40.058Z,18.13
2022-08-25T12:47:32.442Z,16.77
2022-08-25T12:50:36.645Z,18.57
2022-08-25T12:53:34.296Z,18.03
2022-08-25T12:56:06.930Z,18.87
2022-08-25T12:59:02.352Z,16.07
2022-08-25T13:01:38.042Z,16.50
2022-08-25T13:04:43.829Z,14.60
2022-08-25T13:07:43.274Z,19.57
2022-08-25T13:10:23.727Z,18.53
2022-08-25T13:13:10.221Z,14.20
2022-08-25T13:15:46.936Z,24.10
2022-08-25T13:18:15.529Z,17.53
2022-08-25T13:20:44.236Z,15.67
2022-08-25T13:23:17.981Z,13.23
2022-08-25T13:25:53.137Z,14.27
2022-08-25T13:28:33.778Z,12.90
2022-08-25T13:31:05.094Z,13.63
2022-08-25T13:33:33.924Z,12.50
2022-08-25T13:36:22.837Z,16.20
2022-08-25T13:38:50.586Z,12.27
2022-08-25T13:41:29.246Z,13.50
2022-08-25T13:44:00.933Z,12.33
2022-08-25T13:46:28.933Z,11.27
2022-08-25T13:49:08.829Z,9.53
2022-08-25T13:51:36.667Z,8.50
2022-08-25T13:54:08.579Z,9.07
2022-08-25T13:56:40.979Z,12.17
2022-08-25T13:59:25.913Z,10.93
2022-08-25T14:01:54.794Z,14.97
2022-08-25T14:04:27.333Z,14.87
2022-08-25T14:07:22.501Z,14.00
2022-08-25T14:10:01.861Z,10.73
2022-08-25T14:12:37.650Z,10.80
2022-08-25T14:15:13.775Z,13.43
2022-08-25T14:17:44.520Z,11.50
2022-08-25T14:20:27.191Z,12.73
2022-08-25T14:22:58.239Z,12.13
2022-08-25T14:25:28.254Z,15.83
2022-08-25T14:28:08.091Z,10.63
2022-08-25T14:30:40.161Z,13.97
2022-08-25T14:33:12.323Z,15.13
2022-08-25T14:35:40.542Z,14.90
2022-08-25T14:38:12.118Z,12.73
2022-08-25T14:40:39.831Z,9.80
2022-08-25T14:43:09.900Z,13.13
2022-08-25T14:45:40.906Z,10.60
2022-08-25T14:48:10.950Z,14.50
2022-08-25T14:50:41.234Z,13.73
2022-08-25T14:53:11.397Z,11.47
2022-08-25T14:55:38.899Z,17.20
2022-08-25T14:58:07.129Z,11.87
2022-08-25T15:00:41.267Z,16.50
2022-08-25T15:03:09.434Z,12.80
2022-08-25T15:05:37.416Z,11.67
2022-08-25T15:08:22.873Z,12.40
2022-08-25T15:10:49.741Z,14.23
2022-08-25T15:13:16.598Z,10.83
2022-08-25T15:15:52.304Z,12.37
2022-08-25T15:18:21.120Z,11.87
2022-08-25T15:20:50.175Z,12.93
2022-08-25T15:23:18.598Z,15.33
2022-08-25T15:25:47.689Z,13.07
2022-08-25T15:28:17.140Z,13.20
2022-08-25T15:30:45.591Z,13.43
2022-08-25T15:33:13.475Z,11.03
2022-08-25T15:35:41.097Z,16.90
2022-08-25T15:38:08.362Z,18.30
2022-08-25T15:40:37.669Z,10.43
2022-08-25T15:43:05.718Z,9.90
2022-08-25T15:45:35.914Z,11.67
2022-08-25T15:48:04.386Z,10.73
2022-08-25T15:50:33.824Z,10.10
2022-08-25T15:53:00.923Z,12.93
2022-08-25T15:55:27.916Z,12.20
2022-08-25T15:57:55.700Z,12.30
2022-08-25T16:00:22.772Z,11.30
2022-08-25T16:02:50.341Z,14.03
2022-08-25T16:05:17.230Z,15.63
2022-08-25T16:07:46.090Z,14.13
2022-08-25T16:10:18.496Z,16.20
2022-08-25T16:12:46.052Z,10.00
2022-08-25T16:15:13.266Z,16.10
2022-08-25T16:17:40.551Z,9.87
2022-08-25T16:20:13.722Z,13.37
2022-08-25T16:22:41.411Z,15.60
2022-08-25T16:25:10.211Z,14.93
2022-08-25T16:27:38.578Z,17.70
2022-08-25T16:30:07.983Z,12.50
2022-08-25T16:32:35.143Z,15.77
2022-08-25T16:35:03.368Z,20.03
2022-08-25T16:37:30.436Z,13.00
2022-08-25T16:39:57.772Z,15.33
2022-08-25T16:42:26.747Z,15.80
2022-08-25T16:44:55.910Z,16.93
2022-08-25T16:47:25.099Z,19.43
2022-08-25T16:49:54.086Z,12.90
2022-08-25T16:52:40.722Z,11.73
2022-08-25T16:55:14.354Z,13.57
2022-08-25T16:57:47.372Z,12.03
2022-08-25T17:00:17.890Z,13.77
2022-08-25T17:02:46.061Z,15.17
2022-08-25T17:05:14.538Z,17.30
2022-08-25T17:07:41.779Z,13.47
2022-08-25T17:10:12.381Z,13.03
2022-08-25T17:12:40.568Z,20.53
2022-08-25T17:15:07.869Z,14.97
2022-08-25T17:17:37.186Z,12.67
2022-08-25T17:20:04.876Z,15.03
2022-08-25T17:22:31.980Z,9.37
2022-08-25T17:24:59.297Z,13.83
2022-08-25T17:27:28.138Z,13.57
2022-08-25T17:29:55.931Z,15.03
2022-08-25T17:32:28.976Z,13.60
2022-08-25T17:34:57.863Z,15.00
2022-08-25T17:37:25.603Z,13.43
2022-08-25T17:39:56.803Z,14.27
2022-08-25T17:42:31.356Z,14.80
2022-08-25T17:44:58.184Z,20.23
2022-08-25T17:47:25.187Z,19.67
2022-08-25T17:49:51.988Z,13.57
2022-08-25T17:52:22.464Z,17.53
2022-08-25T17:54:52.939Z,13.20
2022-08-25T17:57:22.033Z,14.90
2022-08-25T17:59:48.871Z,15.80
2022-08-25T18:02:15.733Z,16.20
2022-08-25T18:04:42.812Z,12.07
2022-08-25T18:07:10.272Z,15.27
2022-08-25T18:09:37.099Z,19.20
2022-08-25T18:12:04.545Z,15.10
2022-08-25T18:14:31.399Z,15.43
2022-08-25T18:16:58.390Z,14.93
2022-08-25T18:19:25.200Z,13.13
2022-08-25T18:21:52.585Z,16.73
2022-08-25T18:24:19.752Z,14.57
2022-08-25T18:26:46.963Z,18.57
2022-08-25T18:29:14.072Z,13.87
2022-08-25T18:31:45.825Z,19.57
2022-08-25T18:34:15.859Z,15.17
2022-08-25T18:36:42.737Z,15.37
2022-08-25T18:39:34.448Z,19.17
2022-08-25T18:42:02.534Z,16.53
2022-08-25T18:44:29.880Z,14.77
2022-08-25T18:46:56.982Z,19.40
2022-08-25T18:49:26.732Z,16.63
2022-08-25T18:51:55.533Z,16.03
2022-08-25T18:54:23.471Z,16.57
2022-08-25T18:56:53.863Z,17.87
2022-08-25T18:59:23.539Z,16.30
2022-08-25T19:01:52.717Z,14.83
2022-08-25T19:04:19.972Z,22.30
2022-08-25T19:06:46.796Z,18.33
2022-08-25T19:09:13.630Z,14.63
2022-08-25T19:11:43.340Z,14.10
2022-08-25T19:14:12.644Z,14.83
2022-08-25T19:16:42.447Z,16.50
2022-08-25T19:19:13.092Z,12.53
2022-08-25T19:21:41.808Z,15.37
2022-08-25T19:24:10.976Z,23.70
2022-08-25T19:26:38.685Z,13.40
2022-08-25T19:29:13.996Z,16.43
2022-08-25T19:31:42.820Z,28.60
2022-08-25T19:34:13.299Z,19.10
2022-08-25T19:36:41.091Z,13.90
2022-08-25T19:39:12.608Z,16.30
2022-08-25T19:41:39.953Z,16.70
2022-08-25T19:44:07.814Z,14.57
2022-08-25T19:46:37.341Z,16.27
2022-08-25T19:49:08.800Z,13.77
2022-08-25T19:51:38.202Z,17.70
2022-08-25T19:54:08.934Z,15.80
2022-08-25T19:56:44.052Z,14.93
2022-08-25T19:59:22.370Z,16.40
2022-08-25T20:01:49.806Z,18.40
2022-08-25T20:04:16.689Z,23.03
2022-08-25T20:06:48.426Z,19.60
2022-08-25T20:09:35.772Z,12.90
2022-08-25T20:12:06.172Z,18.33
2022-08-25T20:14:33.956Z,19.80
2022-08-25T20:17:02.156Z,21.13
2022-08-25T20:19:30.512Z,17.10
2022-08-25T20:21:57.657Z,19.53
2022-08-25T20:24:43.622Z,16.60
2022-08-25T20:27:10.830Z,17.33
2022-08-25T20:29:37.849Z,13.73
2022-08-25T20:32:05.423Z,24.47
2022-08-25T20:34:32.612Z,17.07
2022-08-25T20:37:00.858Z,18.33
2022-08-25T20:39:27.790Z,16.67
2022-08-25T20:41:55.813Z,21.03
2022-08-25T20:44:23.699Z,17.70
2022-08-25T20:46:51.680Z,15.93
2022-08-25T20:49:21.603Z,16.73
2022-08-25T20:51:48.450Z,16.57
2022-08-25T20:54:18.369Z,19.50
2022-08-25T20:56:45.204Z,20.67
2022-08-25T20:59:12.068Z,19.43
2022-08-25T21:01:39.849Z,18.67
2022-08-25T21:04:19.255Z,20.27
2022-08-25T21:06:47.819Z,19.73
2022-08-25T21:09:19.807Z,16.83
2022-08-25T21:11:47.888Z,17.17
2022-08-25T21:14:15.123Z,17.00
2022-08-25T21:16:46.487Z,18.53
2022-08-25T21:19:26.862Z,20.03
2022-08-25T21:21:59.778Z,17.47
2022-08-25T21:24:28.403Z,22.70
2022-08-25T21:26:57.470Z,23.07
2022-08-25T21:29:28.373Z,17.17
2022-08-25T21:31:56.448Z,23.50
2022-08-25T21:34:23.458Z,20.87
2022-08-25T21:36:50.651Z,17.57
2022-08-25T21:39:19.049Z,21.80
2022-08-25T21:41:46.023Z,15.37
2022-08-25T21:44:14.210Z,21.13
2022-08-25T21:46:41.760Z,21.97
2022-08-25T21:49:20.990Z,20.83
2022-08-25T21:51:50.967Z,20.57
2022-08-25T21:54:24.079Z,18.00
2022-08-25T21:56:53.995Z,23.57
2022-08-25T21:59:25.766Z,20.27
2022-08-25T22:02:07.823Z,17.20
2022-08-25T22:04:38.338Z,17.60
2022-08-25T22:07:06.752Z,20.60
2022-08-25T22:09:33.929Z,17.13
2022-08-25T22:12:00.922Z,18.27
2022-08-25T22:14:29.512Z,16.17
2022-08-25T22:16:57.065Z,21.83
2022-08-25T22:19:24.908Z,17.40
2022-08-25T22:21:52.985Z,19.60
2022-08-25T22:24:20.705Z,20.57
2022-08-25T22:26:49.083Z,20.77
2022-08-25T22:29:25.408Z,21.23
2022-08-25T22:31:59.654Z,19.00
2022-08-25T22:34:32.243Z,17.13
2022-08-25T22:37:01.645Z,19.60
2022-08-25T22:39:28.819Z,21.90
2022-08-25T22:41:55.876Z,15.93
2022-08-25T22:44:23.813Z,19.07
2022-08-25T22:46:50.692Z,17.60
2022-08-25T22:49:18.173Z,20.20
2022-08-25T22:51:46.929Z,19.03
2022-08-25T22:54:15.266Z,18.57
2022-08-25T22:56:42.700Z,21.80
2022-08-25T22:59:13.190Z,18.83
2022-08-25T23:01:41.081Z,25.40
2022-08-25T23:04:08.133Z,19.90
2022-08-25T23:06:35.597Z,18.73
2022-08-25T23:09:06.841Z,20.20
2022-08-25T23:11:33.821Z,15.43
2022-08-25T23:14:00.861Z,21.37
2022-08-25T23:16:29.037Z,19.60
2022-08-25T23:18:56.088Z,16.37
2022-08-25T23:21:42.441Z,18.97
2022-08-25T23:24:11.804Z,18.60
2022-08-25T23:26:42.459Z,22.90
2022-08-25T23:29:18.846Z,20.47
2022-08-25T23:31:47.929Z,18.73
2022-08-25T23:34:16.336Z,21.73
2022-08-25T23:36:43.889Z,18.83
2022-08-25T23:39:11.234Z,21.43
2022-08-25T23:41:38.464Z,19.07
2022-08-25T23:44:06.773Z,20.10
2022-08-25T23:46:36.420Z,19.30
2022-08-25T23:49:05.863Z,17.47
2022-08-25T23:51:37.235Z,20.20
2022-08-25T23:54:09.623Z,21.03
2022-08-25T23:56:44.576Z,18.50
2022-08-25T23:59:19.009Z,18.77
